sensor_id;sensor_type;location;lat;lon;timestamp;P1;durP1;ratioP1;P2;durP2;ratioP2
7047;SDS011;3565;53.254;10.352;2023-02-27T00:00:21;6.13;;;4.70;;
7047;SDS011;3565;53.254;10.352;2023-02-27T00:02:54;8.63;;;5.13;;
7047;SDS011;3565;53.254;10.352;2023-02-27T00:05:23;8.43;;;5.27;;
7047;SDS011;3565;53.254;10.352;2023-02-27T00:07:54;11.67;;;5.10;;
7047;SDS011;3565;53.254;10.352;2023-02-27T00:10:23;6.57;;;5.03;;
7047;SDS011;3565;53.254;10.352;2023-02-27T00:12:52;9.03;;;5.30;;
7047;SDS011;3565;53.254;10.352;2023-02-27T00:15:24;11.33;;;5.30;;
7047;SDS011;3565;53.254;10.352;2023-02-27T00:18:04;9.53;;;5.47;;
7047;SDS011;3565;53.254;10.352;2023-02-27T00:20:34;6.57;;;5.07;;
7047;SDS011;3565;53.254;10.352;2023-02-27T00:23:06;7.53;;;5.30;;
7047;SDS011;3565;53.254;10.352;2023-02-27T00:25:36;9.50;;;5.23;;
7047;SDS011;3565;53.254;10.352;2023-02-27T00:28:07;8.83;;;5.03;;
7047;SDS011;3565;53.254;10.352;2023-02-27T00:30:37;9.73;;;5.30;;
7047;SDS011;3565;53.254;10.352;2023-02-27T00:33:07;8.10;;;5.00;;
7047;SDS011;3565;53.254;10.352;2023-02-27T00:35:37;16.63;;;5.53;;
7047;SDS011;3565;53.254;10.352;2023-02-27T00:38:07;8.53;;;5.50;;
7047;SDS011;3565;53.254;10.352;2023-02-27T00:40:36;8.97;;;5.20;;
7047;SDS011;3565;53.254;10.352;2023-02-27T00:43:16;7.90;;;5.70;;
7047;SDS011;3565;53.254;10.352;2023-02-27T00:45:47;8.90;;;5.47;;
7047;SDS011;3565;53.254;10.352;2023-02-27T00:48:18;8.17;;;5.67;;
7047;SDS011;3565;53.254;10.352;2023-02-27T00:50:48;9.10;;;5.93;;
7047;SDS011;3565;53.254;10.352;2023-02-27T00:53:27;8.50;;;5.47;;
7047;SDS011;3565;53.254;10.352;2023-02-27T00:55:58;7.63;;;6.07;;
7047;SDS011;3565;53.254;10.352;2023-02-27T00:58:28;10.47;;;5.53;;
7047;SDS011;3565;53.254;10.352;2023-02-27T01:00:58;9.70;;;5.30;;
7047;SDS011;3565;53.254;10.352;2023-02-27T01:03:30;10.00;;;5.73;;
7047;SDS011;3565;53.254;10.352;2023-02-27T01:06:03;9.90;;;5.93;;
7047;SDS011;3565;53.254;10.352;2023-02-27T01:08:34;12.40;;;5.70;;
7047;SDS011;3565;53.254;10.352;2023-02-27T01:11:04;13.47;;;6.03;;
7047;SDS011;3565;53.254;10.352;2023-02-27T01:13:34;9.47;;;5.90;;
7047;SDS011;3565;53.254;10.352;2023-02-27T01:16:07;9.97;;;6.77;;
7047;SDS011;3565;53.254;10.352;2023-02-27T01:18:36;9.23;;;6.63;;
7047;SDS011;3565;53.254;10.352;2023-02-27T01:21:07;12.00;;;7.40;;
7047;SDS011;3565;53.254;10.352;2023-02-27T01:23:36;12.10;;;7.27;;
7047;SDS011;3565;53.254;10.352;2023-02-27T01:26:07;17.87;;;8.17;;
7047;SDS011;3565;53.254;10.352;2023-02-27T01:28:36;11.70;;;8.03;;
7047;SDS011;3565;53.254;10.352;2023-02-27T01:31:06;12.97;;;8.33;;
7047;SDS011;3565;53.254;10.352;2023-02-27T01:33:36;13.40;;;7.47;;
7047;SDS011;3565;53.254;10.352;2023-02-27T01:36:08;12.17;;;8.37;;
7047;SDS011;3565;53.254;10.352;2023-02-27T01:38:38;10.30;;;7.03;;
7047;SDS011;3565;53.254;10.352;2023-02-27T01:41:08;12.63;;;7.50;;
7047;SDS011;3565;53.254;10.352;2023-02-27T01:43:52;11.57;;;7.17;;
7047;SDS011;3565;53.254;10.352;2023-02-27T01:46:22;9.97;;;7.33;;
7047;SDS011;3565;53.254;10.352;2023-02-27T01:48:55;10.90;;;6.70;;
7047;SDS011;3565;53.254;10.352;2023-02-27T01:51:29;9.80;;;6.00;;
7047;SDS011;3565;53.254;10.352;2023-02-27T01:54:04;9.73;;;6.17;;
7047;SDS011;3565;53.254;10.352;2023-02-27T01:56:34;8.57;;;6.23;;
7047;SDS011;3565;53.254;10.352;2023-02-27T01:59:05;9.43;;;5.87;;
7047;SDS011;3565;53.254;10.352;2023-02-27T02:01:37;8.80;;;6.50;;
7047;SDS011;3565;53.254;10.352;2023-02-27T02:04:10;12.50;;;6.67;;
7047;SDS011;3565;53.254;10.352;2023-02-27T02:06:43;8.23;;;6.00;;
7047;SDS011;3565;53.254;10.352;2023-02-27T02:09:15;10.97;;;6.33;;
7047;SDS011;3565;53.254;10.352;2023-02-27T02:11:45;9.90;;;6.40;;
7047;SDS011;3565;53.254;10.352;2023-02-27T02:14:16;10.03;;;5.37;;
7047;SDS011;3565;53.254;10.352;2023-02-27T02:16:59;10.50;;;6.10;;
7047;SDS011;3565;53.254;10.352;2023-02-27T02:19:54;10.50;;;6.13;;
7047;SDS011;3565;53.254;10.352;2023-02-27T02:22:51;12.27;;;5.80;;
7047;SDS011;3565;53.254;10.352;2023-02-27T02:29:36;12.30;;;6.27;;
7047;SDS011;3565;53.254;10.352;2023-02-27T02:32:30;10.73;;;6.03;;
7047;SDS011;3565;53.254;10.352;2023-02-27T02:35:41;10.40;;;5.77;;
7047;SDS011;3565;53.254;10.352;2023-02-27T02:41:30;9.40;;;6.17;;
7047;SDS011;3565;53.254;10.352;2023-02-27T02:44:05;10.43;;;6.37;;
7047;SDS011;3565;53.254;10.352;2023-02-27T02:46:50;9.30;;;6.70;;
7047;SDS011;3565;53.254;10.352;2023-02-27T02:49:22;10.10;;;6.37;;
7047;SDS011;3565;53.254;10.352;2023-02-27T02:51:57;8.93;;;5.80;;
7047;SDS011;3565;53.254;10.352;2023-02-27T02:54:29;14.40;;;6.83;;
7047;SDS011;3565;53.254;10.352;2023-02-27T02:57:18;11.63;;;6.60;;
7047;SDS011;3565;53.254;10.352;2023-02-27T02:59:52;11.43;;;6.70;;
7047;SDS011;3565;53.254;10.352;2023-02-27T03:02:24;9.03;;;6.47;;
7047;SDS011;3565;53.254;10.352;2023-02-27T03:05:05;10.87;;;6.30;;
7047;SDS011;3565;53.254;10.352;2023-02-27T03:07:37;12.73;;;7.40;;
7047;SDS011;3565;53.254;10.352;2023-02-27T03:10:10;12.53;;;6.73;;
7047;SDS011;3565;53.254;10.352;2023-02-27T03:12:44;11.63;;;6.97;;
7047;SDS011;3565;53.254;10.352;2023-02-27T03:15:17;11.77;;;6.77;;
7047;SDS011;3565;53.254;10.352;2023-02-27T03:17:50;8.13;;;6.20;;
7047;SDS011;3565;53.254;10.352;2023-02-27T03:20:36;9.37;;;6.57;;
7047;SDS011;3565;53.254;10.352;2023-02-27T03:23:12;10.67;;;6.30;;
7047;SDS011;3565;53.254;10.352;2023-02-27T03:25:45;12.00;;;7.03;;
7047;SDS011;3565;53.254;10.352;2023-02-27T03:28:20;10.83;;;6.23;;
7047;SDS011;3565;53.254;10.352;2023-02-27T03:30:55;9.33;;;6.57;;
7047;SDS011;3565;53.254;10.352;2023-02-27T03:33:28;11.20;;;6.40;;
7047;SDS011;3565;53.254;10.352;2023-02-27T03:36:08;9.23;;;5.97;;
7047;SDS011;3565;53.254;10.352;2023-02-27T03:38:40;8.10;;;6.60;;
7047;SDS011;3565;53.254;10.352;2023-02-27T03:41:14;10.67;;;6.30;;
7047;SDS011;3565;53.254;10.352;2023-02-27T03:43:49;9.93;;;6.20;;
7047;SDS011;3565;53.254;10.352;2023-02-27T03:46:27;9.40;;;6.50;;
7047;SDS011;3565;53.254;10.352;2023-02-27T03:48:57;8.50;;;6.27;;
7047;SDS011;3565;53.254;10.352;2023-02-27T03:51:27;12.37;;;7.17;;
7047;SDS011;3565;53.254;10.352;2023-02-27T03:53:59;12.20;;;6.93;;
7047;SDS011;3565;53.254;10.352;2023-02-27T03:56:33;14.67;;;9.00;;
7047;SDS011;3565;53.254;10.352;2023-02-27T03:59:05;12.93;;;9.57;;
7047;SDS011;3565;53.254;10.352;2023-02-27T04:01:39;20.93;;;13.23;;
7047;SDS011;3565;53.254;10.352;2023-02-27T04:04:11;22.10;;;12.17;;
7047;SDS011;3565;53.254;10.352;2023-02-27T04:06:43;24.43;;;13.03;;
7047;SDS011;3565;53.254;10.352;2023-02-27T04:09:35;18.20;;;11.47;;
7047;SDS011;3565;53.254;10.352;2023-02-27T04:12:17;18.10;;;11.33;;
7047;SDS011;3565;53.254;10.352;2023-02-27T04:14:55;17.83;;;11.37;;
7047;SDS011;3565;53.254;10.352;2023-02-27T04:17:28;16.63;;;11.23;;
7047;SDS011;3565;53.254;10.352;2023-02-27T04:20:10;18.00;;;10.90;;
7047;SDS011;3565;53.254;10.352;2023-02-27T04:22:58;19.27;;;10.70;;
7047;SDS011;3565;53.254;10.352;2023-02-27T04:25:34;16.47;;;10.83;;
7047;SDS011;3565;53.254;10.352;2023-02-27T04:28:25;15.43;;;10.53;;
7047;SDS011;3565;53.254;10.352;2023-02-27T04:31:06;15.93;;;10.03;;
7047;SDS011;3565;53.254;10.352;2023-02-27T04:33:40;15.30;;;9.83;;
7047;SDS011;3565;53.254;10.352;2023-02-27T04:36:17;12.83;;;8.87;;
7047;SDS011;3565;53.254;10.352;2023-02-27T04:39:13;13.93;;;7.80;;
7047;SDS011;3565;53.254;10.352;2023-02-27T04:41:49;14.20;;;8.10;;
7047;SDS011;3565;53.254;10.352;2023-02-27T04:44:22;9.07;;;7.10;;
7047;SDS011;3565;53.254;10.352;2023-02-27T04:46:54;13.23;;;7.63;;
7047;SDS011;3565;53.254;10.352;2023-02-27T04:49:27;13.00;;;7.47;;
7047;SDS011;3565;53.254;10.352;2023-02-27T04:52:00;10.53;;;7.30;;
7047;SDS011;3565;53.254;10.352;2023-02-27T04:54:32;11.27;;;7.30;;
7047;SDS011;3565;53.254;10.352;2023-02-27T04:57:05;11.17;;;7.07;;
7047;SDS011;3565;53.254;10.352;2023-02-27T04:59:37;14.17;;;7.00;;
7047;SDS011;3565;53.254;10.352;2023-02-27T05:02:10;9.60;;;7.20;;
7047;SDS011;3565;53.254;10.352;2023-02-27T05:04:41;11.53;;;7.97;;
7047;SDS011;3565;53.254;10.352;2023-02-27T05:07:14;9.73;;;7.53;;
7047;SDS011;3565;53.254;10.352;2023-02-27T05:09:46;10.23;;;7.33;;
7047;SDS011;3565;53.254;10.352;2023-02-27T05:12:18;14.27;;;7.47;;
7047;SDS011;3565;53.254;10.352;2023-02-27T05:14:51;9.90;;;7.53;;
7047;SDS011;3565;53.254;10.352;2023-02-27T05:17:25;13.30;;;8.23;;
7047;SDS011;3565;53.254;10.352;2023-02-27T05:19:58;10.57;;;7.73;;
7047;SDS011;3565;53.254;10.352;2023-02-27T05:22:31;13.07;;;7.63;;
7047;SDS011;3565;53.254;10.352;2023-02-27T05:25:11;11.37;;;7.93;;
7047;SDS011;3565;53.254;10.352;2023-02-27T05:27:43;11.13;;;8.10;;
7047;SDS011;3565;53.254;10.352;2023-02-27T05:30:18;12.10;;;8.37;;
7047;SDS011;3565;53.254;10.352;2023-02-27T05:32:51;10.87;;;8.07;;
7047;SDS011;3565;53.254;10.352;2023-02-27T05:35:25;11.63;;;7.60;;
7047;SDS011;3565;53.254;10.352;2023-02-27T05:37:58;13.27;;;7.73;;
7047;SDS011;3565;53.254;10.352;2023-02-27T05:40:33;12.23;;;8.40;;
7047;SDS011;3565;53.254;10.352;2023-02-27T05:43:05;14.17;;;8.13;;
7047;SDS011;3565;53.254;10.352;2023-02-27T05:45:36;14.57;;;9.10;;
7047;SDS011;3565;53.254;10.352;2023-02-27T05:48:09;11.57;;;8.63;;
7047;SDS011;3565;53.254;10.352;2023-02-27T05:50:41;11.80;;;8.07;;
7047;SDS011;3565;53.254;10.352;2023-02-27T05:53:14;11.13;;;8.27;;
7047;SDS011;3565;53.254;10.352;2023-02-27T05:55:45;11.17;;;8.37;;
7047;SDS011;3565;53.254;10.352;2023-02-27T05:58:17;12.27;;;8.67;;
7047;SDS011;3565;53.254;10.352;2023-02-27T06:00:50;9.70;;;8.03;;
7047;SDS011;3565;53.254;10.352;2023-02-27T06:03:22;12.00;;;8.93;;
7047;SDS011;3565;53.254;10.352;2023-02-27T06:05:52;15.43;;;8.73;;
7047;SDS011;3565;53.254;10.352;2023-02-27T06:08:24;12.60;;;8.57;;
7047;SDS011;3565;53.254;10.352;2023-02-27T06:10:53;12.37;;;9.23;;
7047;SDS011;3565;53.254;10.352;2023-02-27T06:13:23;13.03;;;8.37;;
7047;SDS011;3565;53.254;10.352;2023-02-27T06:15:57;12.80;;;8.67;;
7047;SDS011;3565;53.254;10.352;2023-02-27T06:18:31;11.87;;;8.63;;
7047;SDS011;3565;53.254;10.352;2023-02-27T06:21:00;12.70;;;8.30;;
7047;SDS011;3565;53.254;10.352;2023-02-27T06:23:30;12.20;;;9.00;;
7047;SDS011;3565;53.254;10.352;2023-02-27T06:26:00;13.63;;;9.07;;
7047;SDS011;3565;53.254;10.352;2023-02-27T06:28:31;13.67;;;8.73;;
7047;SDS011;3565;53.254;10.352;2023-02-27T06:31:00;15.27;;;9.23;;
7047;SDS011;3565;53.254;10.352;2023-02-27T06:36:20;12.30;;;9.57;;
7047;SDS011;3565;53.254;10.352;2023-02-27T06:38:49;12.37;;;8.90;;
7047;SDS011;3565;53.254;10.352;2023-02-27T06:41:18;13.80;;;9.97;;
7047;SDS011;3565;53.254;10.352;2023-02-27T06:43:48;11.80;;;9.03;;
7047;SDS011;3565;53.254;10.352;2023-02-27T06:46:17;11.23;;;8.37;;
7047;SDS011;3565;53.254;10.352;2023-02-27T06:48:47;14.20;;;9.70;;
7047;SDS011;3565;53.254;10.352;2023-02-27T06:51:17;12.60;;;9.17;;
7047;SDS011;3565;53.254;10.352;2023-02-27T06:53:47;15.87;;;9.83;;
7047;SDS011;3565;53.254;10.352;2023-02-27T06:56:17;14.07;;;9.57;;
7047;SDS011;3565;53.254;10.352;2023-02-27T06:58:47;16.30;;;10.23;;
7047;SDS011;3565;53.254;10.352;2023-02-27T07:01:16;18.80;;;9.53;;
7047;SDS011;3565;53.254;10.352;2023-02-27T07:03:45;13.90;;;9.90;;
7047;SDS011;3565;53.254;10.352;2023-02-27T07:06:15;15.17;;;9.60;;
7047;SDS011;3565;53.254;10.352;2023-02-27T07:08:44;13.50;;;9.97;;
7047;SDS011;3565;53.254;10.352;2023-02-27T07:11:13;14.90;;;10.30;;
7047;SDS011;3565;53.254;10.352;2023-02-27T07:13:43;13.07;;;9.10;;
7047;SDS011;3565;53.254;10.352;2023-02-27T07:16:12;17.47;;;10.33;;
7047;SDS011;3565;53.254;10.352;2023-02-27T07:18:41;16.10;;;9.63;;
7047;SDS011;3565;53.254;10.352;2023-02-27T07:21:10;15.03;;;9.23;;
7047;SDS011;3565;53.254;10.352;2023-02-27T07:23:40;14.50;;;9.67;;
7047;SDS011;3565;53.254;10.352;2023-02-27T07:26:10;15.03;;;9.63;;
7047;SDS011;3565;53.254;10.352;2023-02-27T07:28:39;13.07;;;9.07;;
7047;SDS011;3565;53.254;10.352;2023-02-27T07:31:08;14.20;;;8.90;;
7047;SDS011;3565;53.254;10.352;2023-02-27T07:33:38;16.20;;;9.27;;
7047;SDS011;3565;53.254;10.352;2023-02-27T07:36:08;17.13;;;9.27;;
7047;SDS011;3565;53.254;10.352;2023-02-27T07:38:38;14.13;;;8.13;;
7047;SDS011;3565;53.254;10.352;2023-02-27T07:41:07;10.63;;;8.40;;
7047;SDS011;3565;53.254;10.352;2023-02-27T07:43:36;10.67;;;8.73;;
7047;SDS011;3565;53.254;10.352;2023-02-27T07:46:05;14.00;;;9.00;;
7047;SDS011;3565;53.254;10.352;2023-02-27T07:48:34;9.90;;;7.60;;
7047;SDS011;3565;53.254;10.352;2023-02-27T07:51:05;15.00;;;8.50;;
7047;SDS011;3565;53.254;10.352;2023-02-27T07:53:36;12.37;;;8.13;;
7047;SDS011;3565;53.254;10.352;2023-02-27T07:56:05;13.70;;;9.40;;
7047;SDS011;3565;53.254;10.352;2023-02-27T07:58:35;15.40;;;10.10;;
7047;SDS011;3565;53.254;10.352;2023-02-27T08:01:04;13.57;;;9.87;;
7047;SDS011;3565;53.254;10.352;2023-02-27T08:03:34;13.60;;;10.40;;
7047;SDS011;3565;53.254;10.352;2023-02-27T08:06:03;14.70;;;9.20;;
7047;SDS011;3565;53.254;10.352;2023-02-27T08:08:33;13.67;;;9.10;;
7047;SDS011;3565;53.254;10.352;2023-02-27T08:11:05;11.17;;;7.43;;
7047;SDS011;3565;53.254;10.352;2023-02-27T08:13:34;11.67;;;6.87;;
7047;SDS011;3565;53.254;10.352;2023-02-27T08:16:04;9.03;;;6.73;;
7047;SDS011;3565;53.254;10.352;2023-02-27T08:18:36;9.23;;;6.40;;
7047;SDS011;3565;53.254;10.352;2023-02-27T08:21:06;14.83;;;6.97;;
7047;SDS011;3565;53.254;10.352;2023-02-27T08:23:36;9.03;;;6.10;;
7047;SDS011;3565;53.254;10.352;2023-02-27T08:26:06;10.77;;;6.63;;
7047;SDS011;3565;53.254;10.352;2023-02-27T08:28:36;6.80;;;5.43;;
7047;SDS011;3565;53.254;10.352;2023-02-27T08:31:06;9.57;;;5.93;;
7047;SDS011;3565;53.254;10.352;2023-02-27T08:33:36;6.87;;;5.43;;
7047;SDS011;3565;53.254;10.352;2023-02-27T08:36:06;9.00;;;6.33;;
7047;SDS011;3565;53.254;10.352;2023-02-27T08:38:36;7.70;;;5.67;;
7047;SDS011;3565;53.254;10.352;2023-02-27T08:41:05;8.87;;;5.73;;
7047;SDS011;3565;53.254;10.352;2023-02-27T08:43:35;9.07;;;5.70;;
7047;SDS011;3565;53.254;10.352;2023-02-27T08:46:04;8.13;;;5.67;;
7047;SDS011;3565;53.254;10.352;2023-02-27T08:48:34;10.03;;;6.00;;
7047;SDS011;3565;53.254;10.352;2023-02-27T08:51:05;8.50;;;5.83;;
7047;SDS011;3565;53.254;10.352;2023-02-27T08:53:34;7.53;;;5.50;;
7047;SDS011;3565;53.254;10.352;2023-02-27T08:56:03;11.10;;;5.43;;
7047;SDS011;3565;53.254;10.352;2023-02-27T08:58:33;7.17;;;5.43;;
7047;SDS011;3565;53.254;10.352;2023-02-27T09:01:02;8.73;;;5.40;;
7047;SDS011;3565;53.254;10.352;2023-02-27T09:03:32;11.13;;;6.23;;
7047;SDS011;3565;53.254;10.352;2023-02-27T09:06:04;10.20;;;5.40;;
7047;SDS011;3565;53.254;10.352;2023-02-27T09:08:33;7.90;;;5.40;;
7047;SDS011;3565;53.254;10.352;2023-02-27T09:11:02;7.87;;;5.20;;
7047;SDS011;3565;53.254;10.352;2023-02-27T09:13:33;13.40;;;5.83;;
7047;SDS011;3565;53.254;10.352;2023-02-27T09:16:02;9.27;;;5.93;;
7047;SDS011;3565;53.254;10.352;2023-02-27T09:18:32;11.27;;;5.93;;
7047;SDS011;3565;53.254;10.352;2023-02-27T09:21:01;8.10;;;5.77;;
7047;SDS011;3565;53.254;10.352;2023-02-27T09:23:32;6.03;;;5.33;;
7047;SDS011;3565;53.254;10.352;2023-02-27T09:26:01;11.20;;;5.30;;
7047;SDS011;3565;53.254;10.352;2023-02-27T09:28:31;8.77;;;5.60;;
7047;SDS011;3565;53.254;10.352;2023-02-27T09:31:02;10.27;;;6.00;;
7047;SDS011;3565;53.254;10.352;2023-02-27T09:33:32;10.10;;;5.40;;
7047;SDS011;3565;53.254;10.352;2023-02-27T09:36:04;11.30;;;6.33;;
7047;SDS011;3565;53.254;10.352;2023-02-27T09:38:34;10.83;;;5.90;;
7047;SDS011;3565;53.254;10.352;2023-02-27T09:41:05;9.23;;;5.13;;
7047;SDS011;3565;53.254;10.352;2023-02-27T09:43:46;8.77;;;5.57;;
7047;SDS011;3565;53.254;10.352;2023-02-27T09:46:17;9.00;;;5.90;;
7047;SDS011;3565;53.254;10.352;2023-02-27T09:48:50;8.73;;;4.77;;
7047;SDS011;3565;53.254;10.352;2023-02-27T09:51:21;8.43;;;5.27;;
7047;SDS011;3565;53.254;10.352;2023-02-27T09:53:51;9.07;;;5.57;;
7047;SDS011;3565;53.254;10.352;2023-02-27T09:56:25;10.87;;;6.10;;
7047;SDS011;3565;53.254;10.352;2023-02-27T09:58:57;10.03;;;6.60;;
7047;SDS011;3565;53.254;10.352;2023-02-27T10:01:31;9.53;;;5.43;;
7047;SDS011;3565;53.254;10.352;2023-02-27T10:07:13;11.73;;;5.53;;
7047;SDS011;3565;53.254;10.352;2023-02-27T10:09:52;7.80;;;5.67;;
7047;SDS011;3565;53.254;10.352;2023-02-27T10:12:38;7.87;;;5.40;;
7047;SDS011;3565;53.254;10.352;2023-02-27T10:15:10;13.00;;;5.73;;
7047;SDS011;3565;53.254;10.352;2023-02-27T10:17:43;10.60;;;5.80;;
7047;SDS011;3565;53.254;10.352;2023-02-27T10:20:19;6.97;;;4.63;;
7047;SDS011;3565;53.254;10.352;2023-02-27T10:22:52;8.27;;;5.00;;
7047;SDS011;3565;53.254;10.352;2023-02-27T10:25:24;9.03;;;5.50;;
7047;SDS011;3565;53.254;10.352;2023-02-27T10:27:55;10.80;;;5.60;;
7047;SDS011;3565;53.254;10.352;2023-02-27T10:30:28;10.50;;;4.90;;
7047;SDS011;3565;53.254;10.352;2023-02-27T10:33:00;10.40;;;5.17;;
7047;SDS011;3565;53.254;10.352;2023-02-27T10:35:33;9.23;;;5.00;;
7047;SDS011;3565;53.254;10.352;2023-02-27T10:40:40;8.90;;;4.77;;
7047;SDS011;3565;53.254;10.352;2023-02-27T10:43:15;8.27;;;4.17;;
7047;SDS011;3565;53.254;10.352;2023-02-27T10:45:45;8.00;;;4.27;;
7047;SDS011;3565;53.254;10.352;2023-02-27T10:48:15;7.47;;;3.97;;
7047;SDS011;3565;53.254;10.352;2023-02-27T10:50:45;7.20;;;4.20;;
7047;SDS011;3565;53.254;10.352;2023-02-27T10:53:18;8.10;;;3.80;;
7047;SDS011;3565;53.254;10.352;2023-02-27T10:55:57;9.73;;;4.00;;
7047;SDS011;3565;53.254;10.352;2023-02-27T10:58:29;5.57;;;3.53;;
7047;SDS011;3565;53.254;10.352;2023-02-27T11:01:04;6.13;;;3.80;;
7047;SDS011;3565;53.254;10.352;2023-02-27T11:03:33;7.50;;;4.10;;
7047;SDS011;3565;53.254;10.352;2023-02-27T11:06:07;5.60;;;3.70;;
7047;SDS011;3565;53.254;10.352;2023-02-27T11:08:38;7.23;;;4.13;;
7047;SDS011;3565;53.254;10.352;2023-02-27T11:11:10;7.93;;;3.80;;
7047;SDS011;3565;53.254;10.352;2023-02-27T11:13:40;5.17;;;3.30;;
7047;SDS011;3565;53.254;10.352;2023-02-27T11:16:12;7.70;;;3.40;;
7047;SDS011;3565;53.254;10.352;2023-02-27T11:18:42;5.93;;;3.63;;
7047;SDS011;3565;53.254;10.352;2023-02-27T11:21:18;5.37;;;3.60;;
7047;SDS011;3565;53.254;10.352;2023-02-27T11:23:50;7.53;;;3.37;;
7047;SDS011;3565;53.254;10.352;2023-02-27T11:26:29;5.87;;;3.40;;
7047;SDS011;3565;53.254;10.352;2023-02-27T11:29:04;4.70;;;3.00;;
7047;SDS011;3565;53.254;10.352;2023-02-27T11:31:45;4.90;;;3.33;;
7047;SDS011;3565;53.254;10.352;2023-02-27T11:34:18;5.33;;;3.53;;
7047;SDS011;3565;53.254;10.352;2023-02-27T11:36:51;5.50;;;3.17;;
7047;SDS011;3565;53.254;10.352;2023-02-27T11:39:24;3.97;;;2.50;;
7047;SDS011;3565;53.254;10.352;2023-02-27T11:41:57;5.23;;;3.03;;
7047;SDS011;3565;53.254;10.352;2023-02-27T11:44:36;4.50;;;3.20;;
7047;SDS011;3565;53.254;10.352;2023-02-27T11:47:12;4.83;;;3.10;;
7047;SDS011;3565;53.254;10.352;2023-02-27T11:49:56;6.33;;;3.10;;
7047;SDS011;3565;53.254;10.352;2023-02-27T11:52:45;5.07;;;2.83;;
7047;SDS011;3565;53.254;10.352;2023-02-27T11:55:18;3.93;;;3.03;;
7047;SDS011;3565;53.254;10.352;2023-02-27T11:57:51;5.57;;;2.57;;
7047;SDS011;3565;53.254;10.352;2023-02-27T12:00:24;5.47;;;2.97;;
7047;SDS011;3565;53.254;10.352;2023-02-27T12:03:04;4.67;;;2.40;;
7047;SDS011;3565;53.254;10.352;2023-02-27T12:05:38;4.17;;;2.00;;
7047;SDS011;3565;53.254;10.352;2023-02-27T12:08:13;1.40;;;1.30;;
7047;SDS011;3565;53.254;10.352;2023-02-27T12:11:11;3.23;;;2.00;;
7047;SDS011;3565;53.254;10.352;2023-02-27T12:13:42;2.67;;;1.50;;
7047;SDS011;3565;53.254;10.352;2023-02-27T12:16:16;1.77;;;1.60;;
7047;SDS011;3565;53.254;10.352;2023-02-27T12:18:48;4.37;;;2.27;;
7047;SDS011;3565;53.254;10.352;2023-02-27T12:21:21;4.60;;;2.30;;
7047;SDS011;3565;53.254;10.352;2023-02-27T12:23:53;3.10;;;1.90;;
7047;SDS011;3565;53.254;10.352;2023-02-27T12:26:28;3.37;;;2.20;;
7047;SDS011;3565;53.254;10.352;2023-02-27T12:29:01;4.03;;;2.30;;
7047;SDS011;3565;53.254;10.352;2023-02-27T12:31:42;4.67;;;2.37;;
7047;SDS011;3565;53.254;10.352;2023-02-27T12:34:19;4.17;;;2.63;;
7047;SDS011;3565;53.254;10.352;2023-02-27T12:36:58;5.57;;;2.87;;
7047;SDS011;3565;53.254;10.352;2023-02-27T12:39:31;5.20;;;2.50;;
7047;SDS011;3565;53.254;10.352;2023-02-27T12:42:08;3.50;;;2.30;;
7047;SDS011;3565;53.254;10.352;2023-02-27T12:44:43;2.50;;;2.10;;
7047;SDS011;3565;53.254;10.352;2023-02-27T12:47:22;3.27;;;1.90;;
7047;SDS011;3565;53.254;10.352;2023-02-27T12:49:55;2.57;;;1.87;;
7047;SDS011;3565;53.254;10.352;2023-02-27T12:52:34;3.00;;;2.17;;
7047;SDS011;3565;53.254;10.352;2023-02-27T12:55:08;5.80;;;2.20;;
7047;SDS011;3565;53.254;10.352;2023-02-27T13:00:44;6.53;;;2.73;;
7047;SDS011;3565;53.254;10.352;2023-02-27T13:03:16;4.50;;;2.40;;
7047;SDS011;3565;53.254;10.352;2023-02-27T13:05:52;4.30;;;2.40;;
7047;SDS011;3565;53.254;10.352;2023-02-27T13:08:45;6.63;;;2.50;;
7047;SDS011;3565;53.254;10.352;2023-02-27T13:11:43;3.13;;;2.30;;
7047;SDS011;3565;53.254;10.352;2023-02-27T13:14:28;3.07;;;2.10;;
7047;SDS011;3565;53.254;10.352;2023-02-27T13:16:59;3.83;;;2.37;;
7047;SDS011;3565;53.254;10.352;2023-02-27T13:19:32;4.20;;;2.60;;
7047;SDS011;3565;53.254;10.352;2023-02-27T13:22:16;3.03;;;2.73;;
7047;SDS011;3565;53.254;10.352;2023-02-27T13:24:49;5.63;;;3.30;;
7047;SDS011;3565;53.254;10.352;2023-02-27T13:27:21;3.27;;;2.43;;
7047;SDS011;3565;53.254;10.352;2023-02-27T13:29:58;4.63;;;2.33;;
7047;SDS011;3565;53.254;10.352;2023-02-27T13:32:32;5.07;;;2.90;;
7047;SDS011;3565;53.254;10.352;2023-02-27T13:35:05;7.10;;;2.60;;
7047;SDS011;3565;53.254;10.352;2023-02-27T13:37:48;3.47;;;2.17;;
7047;SDS011;3565;53.254;10.352;2023-02-27T13:40:27;3.50;;;2.30;;
7047;SDS011;3565;53.254;10.352;2023-02-27T13:45:56;4.77;;;2.60;;
7047;SDS011;3565;53.254;10.352;2023-02-27T13:54:31;4.23;;;2.23;;
7047;SDS011;3565;53.254;10.352;2023-02-27T13:57:19;6.17;;;3.00;;
7047;SDS011;3565;53.254;10.352;2023-02-27T13:59:54;6.40;;;2.60;;
7047;SDS011;3565;53.254;10.352;2023-02-27T14:02:34;5.73;;;2.63;;
7047;SDS011;3565;53.254;10.352;2023-02-27T14:05:09;3.13;;;2.00;;
7047;SDS011;3565;53.254;10.352;2023-02-27T14:07:49;4.47;;;2.30;;
7047;SDS011;3565;53.254;10.352;2023-02-27T14:10:32;3.67;;;2.40;;
7047;SDS011;3565;53.254;10.352;2023-02-27T14:13:04;3.70;;;2.50;;
7047;SDS011;3565;53.254;10.352;2023-02-27T14:15:52;6.73;;;2.67;;
7047;SDS011;3565;53.254;10.352;2023-02-27T14:24:23;4.70;;;2.37;;
7047;SDS011;3565;53.254;10.352;2023-02-27T14:26:56;3.80;;;2.47;;
7047;SDS011;3565;53.254;10.352;2023-02-27T14:29:27;3.53;;;2.37;;
7047;SDS011;3565;53.254;10.352;2023-02-27T14:31:59;3.43;;;2.30;;
7047;SDS011;3565;53.254;10.352;2023-02-27T14:34:33;3.47;;;2.30;;
7047;SDS011;3565;53.254;10.352;2023-02-27T14:37:26;3.63;;;2.30;;
7047;SDS011;3565;53.254;10.352;2023-02-27T14:39:56;3.60;;;2.13;;
7047;SDS011;3565;53.254;10.352;2023-02-27T14:42:32;3.93;;;2.10;;
7047;SDS011;3565;53.254;10.352;2023-02-27T14:45:14;3.40;;;2.03;;
7047;SDS011;3565;53.254;10.352;2023-02-27T14:47:45;3.80;;;1.90;;
7047;SDS011;3565;53.254;10.352;2023-02-27T14:50:22;3.97;;;2.10;;
7047;SDS011;3565;53.254;10.352;2023-02-27T14:52:53;10.13;;;3.03;;
7047;SDS011;3565;53.254;10.352;2023-02-27T14:55:24;5.50;;;2.60;;
7047;SDS011;3565;53.254;10.352;2023-02-27T14:57:56;4.43;;;2.10;;
7047;SDS011;3565;53.254;10.352;2023-02-27T15:00:36;2.50;;;1.93;;
7047;SDS011;3565;53.254;10.352;2023-02-27T15:03:09;5.13;;;2.47;;
7047;SDS011;3565;53.254;10.352;2023-02-27T15:05:44;4.07;;;2.17;;
7047;SDS011;3565;53.254;10.352;2023-02-27T15:08:16;4.13;;;2.00;;
7047;SDS011;3565;53.254;10.352;2023-02-27T15:10:47;3.30;;;2.00;;
7047;SDS011;3565;53.254;10.352;2023-02-27T15:13:21;4.70;;;2.07;;
7047;SDS011;3565;53.254;10.352;2023-02-27T15:22:00;3.03;;;2.27;;
7047;SDS011;3565;53.254;10.352;2023-02-27T15:24:43;3.40;;;2.20;;
7047;SDS011;3565;53.254;10.352;2023-02-27T15:27:15;3.53;;;2.30;;
7047;SDS011;3565;53.254;10.352;2023-02-27T15:29:48;5.73;;;2.20;;
7047;SDS011;3565;53.254;10.352;2023-02-27T15:32:22;4.17;;;2.03;;
7047;SDS011;3565;53.254;10.352;2023-02-27T15:34:55;2.67;;;2.00;;
7047;SDS011;3565;53.254;10.352;2023-02-27T15:37:27;3.83;;;2.10;;
7047;SDS011;3565;53.254;10.352;2023-02-27T15:39:59;3.87;;;2.20;;
7047;SDS011;3565;53.254;10.352;2023-02-27T15:42:34;2.97;;;2.00;;
7047;SDS011;3565;53.254;10.352;2023-02-27T15:45:06;4.37;;;2.43;;
7047;SDS011;3565;53.254;10.352;2023-02-27T15:47:38;2.70;;;2.00;;
7047;SDS011;3565;53.254;10.352;2023-02-27T15:50:10;2.53;;;1.90;;
7047;SDS011;3565;53.254;10.352;2023-02-27T15:55:27;5.07;;;2.40;;
7047;SDS011;3565;53.254;10.352;2023-02-27T15:57:59;2.13;;;1.90;;
7047;SDS011;3565;53.254;10.352;2023-02-27T16:00:30;4.73;;;1.97;;
7047;SDS011;3565;53.254;10.352;2023-02-27T16:03:02;3.20;;;2.37;;
7047;SDS011;3565;53.254;10.352;2023-02-27T16:05:42;3.57;;;2.20;;
7047;SDS011;3565;53.254;10.352;2023-02-27T16:08:14;4.33;;;2.10;;
7047;SDS011;3565;53.254;10.352;2023-02-27T16:10:45;4.33;;;2.00;;
7047;SDS011;3565;53.254;10.352;2023-02-27T16:13:26;2.57;;;2.10;;
7047;SDS011;3565;53.254;10.352;2023-02-27T16:16:01;2.57;;;2.00;;